Adamsville, Utah
Current Conditions -  °F | °C
As of 9:52 AM on Thursday 30 Oct 2014 (Local Time) from KMLF Reporting Station
Clear Clear  
Wind Chill: 38°   Ceiling: Unl
Heat Index: 42°   Visibility: 10mi
Dew Point: 21°   Wind: 7mph
Humidity: 43%   Direction: 190°S
Pressure: 30.29"   Gusts: NA
Location:  38.2672°N, 112.728°W
Report Text: KMLF 301552Z AUTO 19006KT 10SM CLR 06/M06 A3029 RMK AO2 SLP245 T00561061 TSNO
Loading
Personal Weather Stations






























Interactive Weather Map
Tropical Storm Tracking
New forecast layout! Learn more

10-Day Weather Forecast

Advertisements
Track Severe Weather on mobile